createdAt,value
2019-03-05T00:02:27.931Z,0.60
2019-03-05T00:07:31.404Z,0.30
2019-03-05T00:12:34.874Z,2.17
2019-03-05T00:17:38.340Z,2.75
2019-03-05T00:22:41.811Z,1.93
2019-03-05T00:27:48.354Z,0.62
2019-03-05T00:32:54.879Z,0.68
2019-03-05T00:38:10.027Z,0.50
2019-03-05T00:43:16.830Z,0.77
2019-03-05T00:48:34.985Z,0.55
2019-03-05T00:53:57.670Z,0.87
2019-03-05T00:59:09.921Z,0.57
2019-03-05T01:04:16.430Z,1.02
2019-03-05T01:09:21.555Z,1.17
2019-03-05T01:14:25.382Z,0.70
2019-03-05T01:19:28.841Z,0.33
2019-03-05T01:24:32.368Z,0.40
2019-03-05T01:29:35.824Z,0.82
2019-03-05T01:34:41.193Z,0.70
2019-03-05T01:39:46.354Z,1.02
2019-03-05T01:44:49.810Z,0.70
2019-03-05T01:49:53.264Z,2.10
2019-03-05T01:54:56.720Z,1.62
2019-03-05T02:00:00.355Z,0.30
2019-03-05T02:05:05.248Z,0.60
2019-03-05T02:10:14.859Z,0.30
2019-03-05T02:15:18.557Z,0.93
2019-03-05T02:20:24.154Z,0.70
2019-03-05T02:25:36.672Z,0.80
2019-03-05T02:31:05.764Z,0.77
2019-03-05T02:36:14.887Z,0.75
2019-03-05T02:41:30.316Z,0.90
2019-03-05T02:46:48.675Z,0.85
2019-03-05T02:52:13.153Z,0.60
2019-03-05T02:57:15.469Z,0.40
2019-03-05T03:02:36.956Z,1.05
2019-03-05T03:07:40.414Z,1.17
2019-03-05T03:12:43.935Z,0.70
2019-03-05T03:17:48.139Z,0.53
2019-03-05T03:22:51.826Z,0.85
2019-03-05T03:27:55.277Z,0.65
2019-03-05T03:32:58.754Z,1.50
2019-03-05T03:38:02.189Z,0.65
2019-03-05T03:43:05.644Z,1.17
2019-03-05T03:48:09.097Z,0.70
2019-03-05T03:53:12.553Z,0.40
2019-03-05T03:58:16.073Z,0.72
2019-03-05T04:03:19.604Z,0.30
2019-03-05T04:08:23.227Z,0.40
2019-03-05T04:13:26.686Z,0.72
2019-03-05T04:18:30.140Z,0.45
2019-03-05T04:23:33.605Z,0.40
2019-03-05T04:28:37.139Z,1.00
2019-03-05T04:33:40.593Z,0.33
2019-03-05T04:38:44.050Z,0.45
2019-03-05T04:43:47.505Z,0.35
2019-03-05T04:48:52.601Z,0.65
2019-03-05T04:53:56.061Z,0.42
2019-03-05T04:58:59.518Z,0.37
2019-03-05T05:04:02.973Z,0.50
2019-03-05T05:09:07.501Z,0.95
2019-03-05T05:14:10.971Z,0.70
2019-03-05T05:19:14.423Z,1.57
2019-03-05T05:24:17.881Z,0.63
2019-03-05T05:29:21.352Z,0.90
2019-03-05T05:34:24.811Z,0.75
2019-03-05T05:40:05.072Z,0.60
2019-03-05T05:45:14.448Z,0.68
2019-03-05T05:50:17.908Z,0.60
2019-03-05T05:55:21.359Z,0.63
2019-03-05T06:00:24.985Z,1.12
2019-03-05T06:05:28.440Z,0.85
2019-03-05T06:10:31.900Z,0.78
2019-03-05T06:15:35.343Z,0.80
2019-03-05T06:20:38.798Z,1.90
2019-03-05T06:25:42.264Z,8.45
2019-03-05T06:30:45.723Z,1.17
2019-03-05T06:35:49.177Z,3.65
2019-03-05T06:40:52.656Z,1.13
2019-03-05T06:45:56.091Z,1.87
2019-03-05T06:50:59.547Z,1.17
2019-03-05T06:56:03.001Z,0.70
2019-03-05T07:01:06.451Z,2.43
2019-03-05T07:06:36.889Z,2.42
2019-03-05T07:11:52.131Z,1.92
2019-03-05T07:17:10.595Z,1.15
2019-03-05T07:22:17.111Z,1.87
2019-03-05T07:27:23.569Z,1.00
2019-03-05T07:32:27.027Z,1.00
2019-03-05T07:37:30.485Z,0.70
2019-03-05T07:42:33.936Z,0.80
2019-03-05T07:47:37.393Z,0.50
2019-03-05T07:52:40.919Z,1.00
2019-03-05T07:57:44.378Z,1.15
2019-03-05T08:02:48.017Z,1.15
2019-03-05T08:07:51.471Z,0.95
2019-03-05T08:13:18.840Z,0.67
2019-03-05T08:18:22.290Z,1.32
2019-03-05T08:23:25.739Z,4.10
2019-03-05T08:28:29.192Z,3.20
2019-03-05T08:33:32.652Z,1.17
2019-03-05T08:38:36.103Z,1.98
2019-03-05T08:43:39.561Z,1.07
2019-03-05T08:48:43.015Z,1.53
2019-03-05T08:53:49.794Z,3.27
2019-03-05T08:58:51.643Z,0.65
2019-03-05T09:03:55.099Z,1.45
2019-03-05T09:08:58.551Z,0.70
2019-03-05T09:14:02.008Z,1.35
2019-03-05T09:19:05.461Z,1.70
2019-03-05T09:24:08.919Z,0.60
2019-03-05T09:29:12.373Z,1.43
2019-03-05T09:34:15.829Z,0.85
2019-03-05T09:39:19.297Z,0.50
2019-03-05T09:44:22.754Z,0.62
2019-03-05T09:49:26.207Z,0.70
2019-03-05T09:54:29.662Z,0.88
2019-03-05T09:59:33.127Z,0.87
2019-03-05T10:04:36.586Z,1.05
2019-03-05T10:09:40.041Z,1.20
2019-03-05T10:14:43.496Z,1.32
2019-03-05T10:19:46.955Z,1.45
2019-03-05T10:24:50.679Z,0.90
2019-03-05T10:29:55.007Z,1.40
2019-03-05T10:34:58.532Z,0.97
2019-03-05T10:40:02.099Z,0.55
2019-03-05T10:45:09.153Z,2.10
2019-03-05T10:50:21.205Z,0.60
2019-03-05T10:55:26.500Z,1.42
2019-03-05T11:00:48.081Z,0.30
2019-03-05T11:05:51.943Z,3.17
2019-03-05T11:10:56.203Z,0.70
2019-03-05T11:16:01.396Z,0.60
2019-03-05T11:21:06.195Z,0.75
2019-03-05T11:26:09.647Z,3.27
2019-03-05T11:31:13.105Z,1.37
2019-03-05T11:36:16.833Z,1.67
2019-03-05T11:41:20.330Z,0.93
2019-03-05T11:46:23.790Z,0.93
2019-03-05T11:51:27.250Z,0.70
2019-03-05T11:56:30.708Z,1.42
2019-03-05T12:01:34.169Z,2.00
2019-03-05T12:06:37.628Z,1.27
2019-03-05T12:11:41.084Z,2.43
2019-03-05T12:16:44.539Z,0.78
2019-03-05T12:21:47.991Z,1.80
2019-03-05T12:26:51.483Z,1.55
2019-03-05T12:31:55.005Z,0.73
2019-03-05T12:36:58.456Z,0.98
2019-03-05T12:42:03.625Z,0.73
2019-03-05T12:47:07.088Z,1.37
2019-03-05T12:52:10.543Z,0.97
2019-03-05T12:57:13.997Z,0.80
2019-03-05T13:02:17.462Z,0.47
2019-03-05T13:07:20.922Z,1.50
2019-03-05T13:12:24.375Z,0.97
2019-03-05T13:17:27.831Z,2.37
2019-03-05T13:22:31.283Z,3.98
2019-03-05T13:27:34.736Z,1.77
2019-03-05T13:32:38.188Z,2.53
2019-03-05T13:37:41.639Z,2.92
2019-03-05T13:42:45.097Z,1.50
2019-03-05T13:48:00.910Z,2.45
2019-03-05T13:53:22.993Z,2.40
2019-03-05T13:58:31.659Z,3.98
2019-03-05T14:03:41.431Z,5.12
2019-03-05T14:08:50.878Z,7.67
2019-03-05T14:13:54.336Z,7.10
2019-03-05T14:18:57.801Z,8.88
2019-03-05T14:24:01.246Z,7.70
2019-03-05T14:29:04.716Z,10.47
2019-03-05T14:34:08.158Z,10.87
2019-03-05T14:39:24.874Z,14.98
2019-03-05T14:44:39.460Z,13.15
2019-03-05T14:49:33.657Z,11.45
2019-03-05T14:54:37.111Z,16.25
2019-03-05T14:59:40.638Z,14.33
2019-03-05T15:04:44.117Z,16.47
2019-03-05T15:09:47.594Z,18.27
2019-03-05T15:14:51.195Z,19.70
2019-03-05T15:19:54.699Z,15.80
2019-03-05T15:24:58.203Z,19.27
2019-03-05T15:30:01.683Z,17.50
2019-03-05T15:35:07.149Z,16.12
2019-03-05T15:40:16.776Z,22.35
2019-03-05T15:45:21.871Z,16.60
2019-03-05T15:50:29.476Z,15.80
2019-03-05T15:55:32.954Z,14.18
2019-03-05T16:00:36.422Z,17.17
2019-03-05T16:05:40.150Z,13.45
2019-03-05T16:10:43.619Z,14.45
2019-03-05T16:15:47.159Z,16.77
2019-03-05T16:20:50.619Z,13.53
2019-03-05T16:25:54.245Z,16.62
2019-03-05T16:30:59.349Z,12.85
2019-03-05T16:36:16.375Z,12.23
2019-03-05T16:41:37.670Z,14.28
2019-03-05T16:46:42.736Z,14.20
2019-03-05T16:52:03.946Z,16.05
2019-03-05T16:57:14.507Z,14.53
2019-03-05T17:02:19.611Z,15.53
2019-03-05T17:07:27.799Z,14.87
2019-03-05T17:12:31.313Z,17.00
2019-03-05T17:17:34.772Z,23.25
2019-03-05T17:22:38.245Z,14.98
2019-03-05T17:27:41.755Z,14.90
2019-03-05T17:32:45.892Z,17.67
2019-03-05T17:37:49.349Z,16.67
2019-03-05T17:42:52.825Z,10.37
2019-03-05T17:47:56.312Z,13.80
2019-03-05T17:52:59.770Z,13.53
2019-03-05T17:58:03.252Z,14.33
2019-03-05T18:03:06.728Z,13.13
2019-03-05T18:08:10.211Z,12.82
2019-03-05T18:13:13.694Z,12.93
2019-03-05T18:18:17.168Z,12.45
2019-03-05T18:23:20.641Z,11.55
2019-03-05T18:28:24.139Z,11.00
2019-03-05T18:33:27.608Z,9.55
2019-03-05T18:38:31.087Z,12.98
2019-03-05T18:43:34.540Z,9.70
2019-03-05T18:48:38.013Z,10.30
2019-03-05T18:53:41.507Z,9.60
2019-03-05T18:58:44.956Z,9.55
2019-03-05T19:03:48.424Z,8.40
2019-03-05T19:08:51.900Z,10.77
2019-03-05T19:13:55.377Z,9.03
2019-03-05T19:18:58.839Z,7.72
2019-03-05T19:24:02.311Z,8.03
2019-03-05T19:29:05.828Z,9.55
2019-03-05T19:34:09.380Z,5.75
2019-03-05T19:39:14.880Z,9.08
2019-03-05T19:44:18.511Z,8.58
2019-03-05T19:49:21.971Z,7.62
2019-03-05T19:54:25.706Z,6.08
2019-03-05T19:59:30.088Z,7.33
2019-03-05T20:04:33.837Z,6.15
2019-03-05T20:09:37.325Z,5.72
2019-03-05T20:14:41.062Z,8.03
2019-03-05T20:19:44.538Z,8.38
2019-03-05T20:24:48.035Z,8.30
2019-03-05T20:29:51.484Z,4.17
2019-03-05T20:34:54.943Z,6.12
2019-03-05T20:39:58.397Z,6.87
2019-03-05T20:45:01.859Z,4.45
2019-03-05T20:50:08.454Z,5.70
2019-03-05T20:55:14.956Z,4.23
2019-03-05T21:00:26.945Z,7.00
2019-03-05T21:05:32.841Z,4.58
2019-03-05T21:10:36.379Z,3.98
2019-03-05T21:15:39.855Z,4.40
2019-03-05T21:20:43.322Z,3.92
2019-03-05T21:25:46.793Z,4.00
2019-03-05T21:30:50.260Z,4.73
2019-03-05T21:35:53.735Z,4.43
2019-03-05T21:40:57.210Z,3.98
2019-03-05T21:46:09.700Z,3.52
2019-03-05T21:51:13.173Z,5.22
2019-03-05T21:56:16.834Z,3.22
2019-03-05T22:01:20.310Z,3.62
2019-03-05T22:06:23.964Z,2.87
2019-03-05T22:11:27.508Z,3.35
2019-03-05T22:16:31.361Z,3.23
2019-03-05T22:21:34.837Z,3.85
2019-03-05T22:26:38.315Z,3.50
2019-03-05T22:31:41.796Z,2.60
2019-03-05T22:36:45.253Z,2.58
2019-03-05T22:41:48.715Z,4.53
2019-03-05T22:46:52.179Z,2.83
2019-03-05T22:51:55.631Z,3.07
2019-03-05T22:56:59.083Z,3.30
2019-03-05T23:02:02.780Z,3.80
2019-03-05T23:07:06.709Z,3.33
2019-03-05T23:12:10.499Z,2.60
2019-03-05T23:17:14.194Z,2.37
2019-03-05T23:22:17.719Z,3.00
2019-03-05T23:27:21.172Z,3.77
2019-03-05T23:32:24.628Z,2.40
2019-03-05T23:37:28.120Z,3.20
2019-03-05T23:42:31.579Z,2.20
2019-03-05T23:47:35.039Z,2.95
2019-03-05T23:52:39.365Z,2.87
2019-03-05T23:57:42.830Z,2.25
